Andungen F-62-bd — LM2808 — position and weather

sailwx.info

Track history (hours):
 
Tides and Currents Weather Stations Pressure Air Temp Water Temp Dewpoint Dewpoint Depression Visibility Wind Speed Wind Dir Waves Ship Positions

Andungen F-62-bd

Last reported at 2017-Nov-16 09:06 UTC. Time now 2017-Dec-15 04:27 UTC.
Position N 70°38' E 029°44'.
Warning: this ship's position is 28 days out of date.

Length 10 m.

Type: Fishing. MMSI: 257136040.

Date/timePositionNaut miles runAvg speedWind from/ knotsBaromVisibWave heightAir tempDewpointWater temp
2017-Nov-16 09:06N 70°38' E 029°44'0 0.0
2017-Nov-16 09:00N 70°38' E 029°44'0 0.0
2017-Nov-16 08:30N 70°38' E 029°44'0 0.0
2017-Nov-16 08:00N 70°38' E 029°44'0 0.0
2017-Nov-16 07:30N 70°38' E 029°44'0 0.0
2017-Nov-16 07:00N 70°38' E 029°44'0 0.0
2017-Nov-16 06:30N 70°38' E 029°44'0 0.0
2017-Nov-16 06:00N 70°38' E 029°44'0 0.0
2017-Nov-16 05:30N 70°38' E 029°44'0 0.0
2017-Nov-16 05:00N 70°38' E 029°44'0 0.0
2017-Nov-16 04:30N 70°38' E 029°44'0 0.0
2017-Nov-16 04:00N 70°38' E 029°44'0 0.0
2017-Nov-16 03:30N 70°38' E 029°44'0 0.0
2017-Nov-16 03:00N 70°38' E 029°44'0 0.0
2017-Nov-16 02:30N 70°38' E 029°44'0 0.0
2017-Nov-16 02:00N 70°38' E 029°44'0 0.0
2017-Nov-16 01:30N 70°38' E 029°44'0 0.0
2017-Nov-16 01:00N 70°38' E 029°44'0 0.0
2017-Nov-16 00:30N 70°38' E 029°44'0 0.0
2017-Nov-16 00:00N 70°38' E 029°44'0 0.0
2017-Nov-15 23:30N 70°38' E 029°44'0 0.0
2017-Nov-15 23:00N 70°38' E 029°44'0 0.0
2017-Nov-15 22:30N 70°38' E 029°44'0 0.0
2017-Nov-15 22:00N 70°38' E 029°44'0 0.0
2017-Nov-15 21:30N 70°38' E 029°44'0 0.0
2017-Nov-15 21:00N 70°38' E 029°44'0 0.0
2017-Nov-15 20:30N 70°38' E 029°44'0 0.0
2017-Nov-15 20:00N 70°38' E 029°44'0 0.0
2017-Nov-15 19:30N 70°38' E 029°44'0 0.0
2017-Nov-15 19:00N 70°38' E 029°44'0 0.0
2017-Nov-15 18:30N 70°38' E 029°44'0 0.0
2017-Nov-15 18:00N 70°38' E 029°44'0 0.4
2017-Nov-15 17:29N 70°38' E 029°44'0 0.8
2017-Nov-15 16:55N 70°38' E 029°43'0 0.0
2017-Nov-15 16:25N 70°38' E 029°43'2 4.5
2017-Nov-15 16:00N 70°39' E 029°47'3 6.2
2017-Nov-15 15:30N 70°42' E 029°50'3 6.2
2017-Nov-15 15:00N 70°45' E 029°52'2 4.2
2017-Nov-15 14:30N 70°47' E 029°52'0 0.5
2017-Nov-15 13:59N 70°47' E 029°53'0 0.8
2017-Nov-15 13:30N 70°47' E 029°54'0 0.9
2017-Nov-15 13:00N 70°47' E 029°55'0 0.9
2017-Nov-15 12:30N 70°46' E 029°56'0 0.8
2017-Nov-15 11:59N 70°46' E 029°57'2 3.3
2017-Nov-15 11:30N 70°47' E 029°53'1 2.7
2017-Nov-15 11:00N 70°49' E 029°53'0 0.2
2017-Nov-15 10:30N 70°49' E 029°53'0 0.5
2017-Nov-15 10:00N 70°48' E 029°52'0 0.8
2017-Nov-15 09:30N 70°48' E 029°52'0 0.9
2017-Nov-15 09:00N 70°48' E 029°50'0 0.5
2017-Nov-15 08:30N 70°48' E 029°50'0 0.8
2017-Nov-15 08:00N 70°48' E 029°51'0 0.2
2017-Nov-15 07:29N 70°48' E 029°51'1 1.4
2017-Nov-15 06:59N 70°47' E 029°50'1 3.1
2017-Nov-15 06:30N 70°47' E 029°54'2 3.8
2017-Nov-15 05:59N 70°45' E 029°55'3 5.6
2017-Nov-15 05:30N 70°42' E 029°50'3 6.2
2017-Nov-15 05:00N 70°39' E 029°48'2 3.5
2017-Nov-15 04:29N 70°38' E 029°44'0 0.3
2017-Nov-15 03:59N 70°38' E 029°44'0 0.0
2017-Nov-15 03:29N 70°38' E 029°44'0 0.0
2017-Nov-15 02:59N 70°38' E 029°44'0 0.0
2017-Nov-15 02:29N 70°38' E 029°44'0 0.0
2017-Nov-15 01:59N 70°38' E 029°44'0 0.0
2017-Nov-15 01:29N 70°38' E 029°44'0 0.0
2017-Nov-15 00:59N 70°38' E 029°44'0 0.0
2017-Nov-15 00:29N 70°38' E 029°44'0 0.0
2017-Nov-14 23:59N 70°38' E 029°44'0 0.0
2017-Nov-14 23:29N 70°38' E 029°44'0 0.0
2017-Nov-14 22:59N 70°38' E 029°44'0 0.0
2017-Nov-14 22:29N 70°38' E 029°44'0 0.0
2017-Nov-14 21:59N 70°38' E 029°44'0 0.0
2017-Nov-14 21:29N 70°38' E 029°44'0 0.0
2017-Nov-14 20:59N 70°38' E 029°44'0 0.0
2017-Nov-14 20:29N 70°38' E 029°44'0 0.0
2017-Nov-14 19:59N 70°38' E 029°44'0 0.0
2017-Nov-14 19:29N 70°38' E 029°44'0 0.0
2017-Nov-14 18:56N 70°38' E 029°44'0 0.0
2017-Nov-14 18:29N 70°38' E 029°44'0 0.0
2017-Nov-14 17:59N 70°38' E 029°44'0 0.0
2017-Nov-14 17:29N 70°38' E 029°44'0 0.0
2017-Nov-14 16:59N 70°38' E 029°44'0 0.0
2017-Nov-14 16:29N 70°38' E 029°44'0 0.0
2017-Nov-14 15:59N 70°38' E 029°44'0 0.0
2017-Nov-14 15:29N 70°38' E 029°44'0 0.0
2017-Nov-14 14:59N 70°38' E 029°44'0 0.0
2017-Nov-14 14:29N 70°38' E 029°44'0 0.0
2017-Nov-14 13:59N 70°38' E 029°44'0 0.0
2017-Nov-14 13:29N 70°38' E 029°44'0 0.0
2017-Nov-14 12:59N 70°38' E 029°44'0 0.0
2017-Nov-14 12:29N 70°38' E 029°44'0 0.0
2017-Nov-14 11:59N 70°38' E 029°44'0 0.0
2017-Nov-14 11:29N 70°38' E 029°44'0 0.0
2017-Nov-14 10:59N 70°38' E 029°44'0 0.0
2017-Nov-14 10:29N 70°38' E 029°44'0 0.0
2017-Nov-14 09:59N 70°38' E 029°44'0 0.0
2017-Nov-14 09:29N 70°38' E 029°44'0 0.0
2017-Nov-14 08:59N 70°38' E 029°44'0 0.0
2017-Nov-14 08:26N 70°38' E 029°44'0 0.0
2017-Nov-14 07:59N 70°38' E 029°44'0 0.0
2017-Nov-14 07:29N 70°38' E 029°44'0 0.0
2017-Nov-14 06:59N 70°38' E 029°44'0 0.0
2017-Nov-14 06:29N 70°38' E 029°44'0 0.0
2017-Nov-14 05:59N 70°38' E 029°44'0 0.0
2017-Nov-14 05:26N 70°38' E 029°44'0 0.0
2017-Nov-14 04:59N 70°38' E 029°44'0 0.0
2017-Nov-14 04:29N 70°38' E 029°44'0 0.0
2017-Nov-14 03:59N 70°38' E 029°44'0 0.0
2017-Nov-14 03:29N 70°38' E 029°44'0 0.0
2017-Nov-14 02:59N 70°38' E 029°44'0 0.0
2017-Nov-14 02:29N 70°38' E 029°44'0 0.0
2017-Nov-14 01:59N 70°38' E 029°44'0 0.0
2017-Nov-14 01:29N 70°38' E 029°44'0 0.0
2017-Nov-14 00:59N 70°38' E 029°44'0 0.0
2017-Nov-14 00:29N 70°38' E 029°44'0 0.0
2017-Nov-13 23:59N 70°38' E 029°44'0 0.0
2017-Nov-13 23:29N 70°38' E 029°44'0 0.0
2017-Nov-13 22:59N 70°38' E 029°44'0 0.0
2017-Nov-13 22:29N 70°38' E 029°44'0 0.0
2017-Nov-13 21:59N 70°38' E 029°44'0 0.0
2017-Nov-13 01:59N 70°38' E 029°44'0 0.0
2017-Nov-13 01:29N 70°38' E 029°44'0 0.0
2017-Nov-13 00:59N 70°38' E 029°44'0 0.0
2017-Nov-13 00:29N 70°38' E 029°44'0 0.0
2017-Nov-12 23:59N 70°38' E 029°44'0 0.0
2017-Nov-12 23:29N 70°38' E 029°44'0 0.0
2017-Nov-12 22:59N 70°38' E 029°44'0 0.0
2017-Nov-12 22:29N 70°38' E 029°44'0 0.0
2017-Nov-12 21:59N 70°38' E 029°44'0 0.0
2017-Nov-12 21:29N 70°38' E 029°44'0 0.0
2017-Nov-12 20:59N 70°38' E 029°44'0 0.0
2017-Nov-12 20:29N 70°38' E 029°44'0 0.0
2017-Nov-12 19:59N 70°38' E 029°44'0 0.0
2017-Nov-12 19:29N 70°38' E 029°44'0 0.0
2017-Nov-12 18:59N 70°38' E 029°44'0 0.0
2017-Nov-12 18:29N 70°38' E 029°44'0 0.0
2017-Nov-12 17:59N 70°38' E 029°44'0 0.0
2017-Nov-12 17:29N 70°38' E 029°44'0 0.0
2017-Nov-12 16:59N 70°38' E 029°44'0 0.0
2017-Nov-12 16:29N 70°38' E 029°44'0 0.0
2017-Nov-12 15:59N 70°38' E 029°44'0 0.0
2017-Nov-12 15:29N 70°38' E 029°44'0 0.3
2017-Nov-12 15:00N 70°38' E 029°44'2 3.1
2017-Nov-12 14:30N 70°39' E 029°48'3 6.1
2017-Nov-12 14:00N 70°42' E 029°50'3 6.2
2017-Nov-12 13:30N 70°45' E 029°51'3 5.8
2017-Nov-12 13:00N 70°48' E 029°53'1 1.7
2017-Nov-12 12:30N 70°49' E 029°54'0 0.3
2017-Nov-12 12:00N 70°49' E 029°54'0 0.6
2017-Nov-12 11:28N 70°48' E 029°54'0 0.8
2017-Nov-12 11:00N 70°48' E 029°53'0 0.4
2017-Nov-12 10:30N 70°48' E 029°53'0 0.7
2017-Nov-12 10:00N 70°48' E 029°53'1 1.8
2017-Nov-12 09:30N 70°49' E 029°54'0 0.9
2017-Nov-12 08:59N 70°48' E 029°53'0 0.4
2017-Nov-12 08:30N 70°49' E 029°54'0 0.5
2017-Nov-12 08:00N 70°49' E 029°54'0 0.7
2017-Nov-12 07:29N 70°49' E 029°53'1 1.1
2017-Nov-12 07:00N 70°48' E 029°53'0 0.2
2017-Nov-12 06:30N 70°48' E 029°53'2 5.0
2017-Nov-12 06:00N 70°46' E 029°51'3 6.6
2017-Nov-12 05:30N 70°42' E 029°50'3 6.6
2017-Nov-12 04:59N 70°39' E 029°47'1 3.1
2017-Nov-12 04:30N 70°38' E 029°44'0 0.3
2017-Nov-12 04:00N 70°38' E 029°44'0 0.0
2017-Nov-12 03:30N 70°38' E 029°44'0 0.0
2017-Nov-12 03:00N 70°38' E 029°44'0 0.0
2017-Nov-12 02:30N 70°38' E 029°44'0 0.0
2017-Nov-12 01:57N 70°38' E 029°44'0 0.0
2017-Nov-12 01:30N 70°38' E 029°44'0 0.0
2017-Nov-12 01:00N 70°38' E 029°44'0 0.0
2017-Nov-12 00:30N 70°38' E 029°44'0 0.0
2017-Nov-12 00:00N 70°38' E 029°44'0 0.0
2017-Nov-11 23:30N 70°38' E 029°44'0 0.0
2017-Nov-11 23:00N 70°38' E 029°44'0 0.0
2017-Nov-11 22:30N 70°38' E 029°44'0 0.0
2017-Nov-11 22:00N 70°38' E 029°44'0 0.0
2017-Nov-11 21:30N 70°38' E 029°44'0 0.0
2017-Nov-11 21:00N 70°38' E 029°44'0 0.0
2017-Nov-11 20:30N 70°38' E 029°44'0 0.0
2017-Nov-11 20:00N 70°38' E 029°44'0 0.0
2017-Nov-11 19:30N 70°38' E 029°44'0 0.0
2017-Nov-11 19:00N 70°38' E 029°44'0 0.0
2017-Nov-11 18:30N 70°38' E 029°44'0 0.0
2017-Nov-11 18:00N 70°38' E 029°44'0 0.0
2017-Nov-11 17:30N 70°38' E 029°44'0 0.0
2017-Nov-11 17:00N 70°38' E 029°44'0 0.0
2017-Nov-11 16:30N 70°38' E 029°44'0 0.0
2017-Nov-11 16:00N 70°38' E 029°44'0 0.0
2017-Nov-11 15:30N 70°38' E 029°44'0 0.0
2017-Nov-11 15:00N 70°38' E 029°44'0 0.0
2017-Nov-11 14:30N 70°38' E 029°44'0 0.0
2017-Nov-11 13:57N 70°38' E 029°44'0 0.0
2017-Nov-11 13:30N 70°38' E 029°44'0 0.0
2017-Nov-11 13:00N 70°38' E 029°44'0 0.0
2017-Nov-11 12:30N 70°38' E 029°44'0 0.0
2017-Nov-11 12:00N 70°38' E 029°44'0 0.0
2017-Nov-11 11:30N 70°38' E 029°44'0 0.0
2017-Nov-11 11:00N 70°38' E 029°44'0 0.0
2017-Nov-11 10:27N 70°38' E 029°44'0 0.0
2017-Nov-11 10:00N 70°38' E 029°44'0 0.0
2017-Nov-11 09:30N 70°38' E 029°44'0 0.0
2017-Nov-11 09:00N 70°38' E 029°44'0 0.0
2017-Nov-11 08:30N 70°38' E 029°44'0 0.0
2017-Nov-11 08:00N 70°38' E 029°44'0 0.0
2017-Nov-11 07:30N 70°38' E 029°44'0 0.0
2017-Nov-11 07:00N 70°38' E 029°44'0 0.0
2017-Nov-11 06:30N 70°38' E 029°44'0 0.0
2017-Nov-11 06:00N 70°38' E 029°44'0 0.0
2017-Nov-11 05:30N 70°38' E 029°44'0 0.0
2017-Nov-11 05:00N 70°38' E 029°44'0 0.0
2017-Nov-11 04:30N 70°38' E 029°44'0 0.0
2017-Nov-11 04:00N 70°38' E 029°44'0 0.0
2017-Nov-11 03:30N 70°38' E 029°44'0 0.0
2017-Nov-11 02:57N 70°38' E 029°44'0 0.0
2017-Nov-11 02:30N 70°38' E 029°44'0 0.0
2017-Nov-11 01:57N 70°38' E 029°44'0 0.0
2017-Nov-11 01:30N 70°38' E 029°44'0 0.0
2017-Nov-11 01:00N 70°38' E 029°44'0 0.0
2017-Nov-11 00:30N 70°38' E 029°44'0 0.0
2017-Nov-11 00:00N 70°38' E 029°44'0 0.0
2017-Nov-10 23:30N 70°38' E 029°44'0 0.0
2017-Nov-10 23:00N 70°38' E 029°44'0 0.0
2017-Nov-10 22:30N 70°38' E 029°44'0 0.0
2017-Nov-10 22:00N 70°38' E 029°44'0 0.0
2017-Nov-10 21:30N 70°38' E 029°44'0 0.0
2017-Nov-10 21:00N 70°38' E 029°44'0 0.0
2017-Nov-10 20:30N 70°38' E 029°44'0 0.0
2017-Nov-10 20:00N 70°38' E 029°44'0 0.0
2017-Nov-10 19:30N 70°38' E 029°44'0 0.0
2017-Nov-10 19:00N 70°38' E 029°44'0 0.0
2017-Nov-10 18:30N 70°38' E 029°44'0 0.0
2017-Nov-10 18:00N 70°38' E 029°44'0 0.0
2017-Nov-10 17:30N 70°38' E 029°44'0 0.0
2017-Nov-10 17:00N 70°38' E 029°44'0 0.0
2017-Nov-10 16:30N 70°38' E 029°44'0 0.0
2017-Nov-10 16:00N 70°38' E 029°44'0 0.0
2017-Nov-10 15:30N 70°38' E 029°44'0 0.0
2017-Nov-10 15:00N 70°38' E 029°44'0 0.0
2017-Nov-10 14:30N 70°38' E 029°44'0 0.0
2017-Nov-10 14:00N 70°38' E 029°44'0 0.0
2017-Nov-10 13:30N 70°38' E 029°44'0 0.0
2017-Nov-10 13:00N 70°38' E 029°44'0 0.0
2017-Nov-10 12:30N 70°38' E 029°44'0 0.0
2017-Nov-10 12:00N 70°38' E 029°44'0 0.0
2017-Nov-10 11:27N 70°38' E 029°44'0 0.0
2017-Nov-10 11:00N 70°38' E 029°44'0 0.0
2017-Nov-10 10:30N 70°38' E 029°44'0 0.0
2017-Nov-10 10:00N 70°38' E 029°44'0 0.0
2017-Nov-10 09:30N 70°38' E 029°44'0 0.0
2017-Nov-10 09:00N 70°38' E 029°44'0 0.0
2017-Nov-10 08:30N 70°38' E 029°44'0 0.0
2017-Nov-10 08:00N 70°38' E 029°44'0 0.0
2017-Nov-10 07:30N 70°38' E 029°44'0 0.0
2017-Nov-10 07:00N 70°38' E 029°44'0 0.0
2017-Nov-10 06:30N 70°38' E 029°44'0 0.0
2017-Nov-10 05:57N 70°38' E 029°44'0 0.0
2017-Nov-10 05:30N 70°38' E 029°44'0 0.0
2017-Nov-10 05:00N 70°38' E 029°44'0 0.0
2017-Nov-10 04:30N 70°38' E 029°44'0 0.0
2017-Nov-10 04:00N 70°38' E 029°44'0 0.0
2017-Nov-10 03:30N 70°38' E 029°44'0 0.0
2017-Nov-10 03:00N 70°38' E 029°44'0 0.0
2017-Nov-10 02:30N 70°38' E 029°44'0 0.0
2017-Nov-10 02:00N 70°38' E 029°44'0 0.0
2017-Nov-10 01:30N 70°38' E 029°44'0 0.0
2017-Nov-10 01:00N 70°38' E 029°44'0 0.0
2017-Nov-10 00:30N 70°38' E 029°44'0 0.0
2017-Nov-10 00:00N 70°38' E 029°44'0 0.0
2017-Nov-09 23:30N 70°38' E 029°44'0 0.0
2017-Nov-09 23:00N 70°38' E 029°44'0 0.0
2017-Nov-09 22:30N 70°38' E 029°44'0 0.0
2017-Nov-09 22:00N 70°38' E 029°44'0 0.0
2017-Nov-09 21:30N 70°38' E 029°44'0 0.0
2017-Nov-09 21:00N 70°38' E 029°44'0 0.0
2017-Nov-09 20:30N 70°38' E 029°44'0 0.0
2017-Nov-09 20:00N 70°38' E 029°44'0 0.0
2017-Nov-09 19:30N 70°38' E 029°44'0 0.0
2017-Nov-09 19:00N 70°38' E 029°44'0 0.0
2017-Nov-09 18:30N 70°38' E 029°44'0 0.0
2017-Nov-09 18:00N 70°38' E 029°44'0 0.0
2017-Nov-09 17:30N 70°38' E 029°44'0 0.0
2017-Nov-09 17:00N 70°38' E 029°44'0 0.0
2017-Nov-09 16:30N 70°38' E 029°44'0 0.0
2017-Nov-09 16:00N 70°38' E 029°44'0 0.0
2017-Nov-09 15:30N 70°38' E 029°44'0 0.0
2017-Nov-09 14:59N 70°38' E 029°44'0 0.6
2017-Nov-09 14:29N 70°38' E 029°44'0 0.5
2017-Nov-09 13:59N 70°38' E 029°43'1 2.2
2017-Nov-09 13:30N 70°38' E 029°46'3 6.1
2017-Nov-09 13:00N 70°41' E 029°49'3 5.9
2017-Nov-09 12:30N 70°44' E 029°52'3 5.5
2017-Nov-09 12:00N 70°47' E 029°55'2 4.4
2017-Nov-09 11:30N 70°49' E 029°57'1 1.6
2017-Nov-09 11:00N 70°48' E 029°58'0 0.6
2017-Nov-09 10:29N 70°48' E 029°57'0 0.6
2017-Nov-09 09:59N 70°48' E 029°57'1 1.4
2017-Nov-09 09:30N 70°48' E 029°58'0 0.5
2017-Nov-09 08:58N 70°48' E 029°58'1 1.1
2017-Nov-09 08:30N 70°48' E 029°57'0 0.7
2017-Nov-09 08:00N 70°48' E 029°56'1 1.5
2017-Nov-09 07:29N 70°48' E 029°55'0 0.5
2017-Nov-09 07:00N 70°47' E 029°55'2 4.0
2017-Nov-09 06:30N 70°45' E 029°54'3 6.4
2017-Nov-09 06:00N 70°42' E 029°51'3 6.5
2017-Nov-09 05:30N 70°39' E 029°48'2 3.3
2017-Nov-09 04:59N 70°38' E 029°44'0 0.3
2017-Nov-09 04:29N 70°38' E 029°44'0 0.0
2017-Nov-09 03:59N 70°38' E 029°44'0 0.0
2017-Nov-09 03:29N 70°38' E 029°44'0 0.0
2017-Nov-09 02:59N 70°38' E 029°44'0 0.0
2017-Nov-09 02:29N 70°38' E 029°44'0 0.0
2017-Nov-09 01:59N 70°38' E 029°44'0 0.0
2017-Nov-09 01:29N 70°38' E 029°44'0 0.0
2017-Nov-09 00:59N 70°38' E 029°44'0 0.0
2017-Nov-09 00:29N 70°38' E 029°44'0 0.0
2017-Nov-08 23:59N 70°38' E 029°44'0 0.0
2017-Nov-08 23:29N 70°38' E 029°44'0 0.0
2017-Nov-08 22:59N 70°38' E 029°44'0 0.0
2017-Nov-08 22:29N 70°38' E 029°44'0 0.0
2017-Nov-08 21:59N 70°38' E 029°44'0 0.0
2017-Nov-08 21:29N 70°38' E 029°44'0 0.0
2017-Nov-08 20:59N 70°38' E 029°44'0 0.0
2017-Nov-08 20:29N 70°38' E 029°44'0 0.0
2017-Nov-08 19:59N 70°38' E 029°44'0 0.0
2017-Nov-08 19:29N 70°38' E 029°44'0 0.0
2017-Nov-08 18:59N 70°38' E 029°44'0 0.0
2017-Nov-08 18:29N 70°38' E 029°44'0 0.0
2017-Nov-08 17:59N 70°38' E 029°44'0 0.0
2017-Nov-08 17:26N 70°38' E 029°44'0 0.0
2017-Nov-08 16:59N 70°38' E 029°44'0 0.0
2017-Nov-08 16:29N 70°38' E 029°44'0 0.0
2017-Nov-08 15:59N 70°38' E 029°44'0 0.0
2017-Nov-08 15:29N 70°38' E 029°44'0 0.0
2017-Nov-08 14:59N 70°38' E 029°44'0 0.0
2017-Nov-08 14:29N 70°38' E 029°44'0 0.0
2017-Nov-08 13:59N 70°38' E 029°44'0 0.0
2017-Nov-08 13:29N 70°38' E 029°44'0 0.0
2017-Nov-08 12:59N 70°38' E 029°44'0 0.0
2017-Nov-08 12:29N 70°38' E 029°44'0 0.0
2017-Nov-08 11:59N 70°38' E 029°44'0 0.0
2017-Nov-08 11:29N 70°38' E 029°44'0 0.0
2017-Nov-08 10:59N 70°38' E 029°44'0 0.0
2017-Nov-08 10:29N 70°38' E 029°44'0 0.0
2017-Nov-08 09:59N 70°38' E 029°44'0 0.0
2017-Nov-08 09:29N 70°38' E 029°44'0 0.0
2017-Nov-08 08:59N 70°38' E 029°44'0 0.0
2017-Nov-08 08:29N 70°38' E 029°44'0 0.0
2017-Nov-08 07:59N 70°38' E 029°44'0 0.0
2017-Nov-08 07:29N 70°38' E 029°44'0 0.0
2017-Nov-08 06:59N 70°38' E 029°44'0 0.0
2017-Nov-08 06:29N 70°38' E 029°44'0 0.0
2017-Nov-08 05:59N 70°38' E 029°44'0 0.0
2017-Nov-08 05:29N 70°38' E 029°44'0 0.0
2017-Nov-08 04:59N 70°38' E 029°44'0 0.0
2017-Nov-08 04:29N 70°38' E 029°44'0 0.0
2017-Nov-08 03:59N 70°38' E 029°44'0 0.0
2017-Nov-08 03:29N 70°38' E 029°44'0 0.0
2017-Nov-08 02:59N 70°38' E 029°44'0 0.0
2017-Nov-08 02:29N 70°38' E 029°44'0 0.0
2017-Nov-08 01:59N 70°38' E 029°44'0 0.0
2017-Nov-08 01:29N 70°38' E 029°44'0 0.0
2017-Nov-08 00:59N 70°38' E 029°44'0 0.0
2017-Nov-08 00:29N 70°38' E 029°44'0 0.0
2017-Nov-07 23:59N 70°38' E 029°44'0 0.0
2017-Nov-07 23:29N 70°38' E 029°44'0 0.0
2017-Nov-07 22:59N 70°38' E 029°44'0 0.0
2017-Nov-07 22:29N 70°38' E 029°44'0 0.0
2017-Nov-07 21:59N 70°38' E 029°44'0 0.0
2017-Nov-07 21:29N 70°38' E 029°44'0 0.0
2017-Nov-07 20:59N 70°38' E 029°44'0 0.0
2017-Nov-07 20:29N 70°38' E 029°44'0 0.0
2017-Nov-07 19:59N 70°38' E 029°44'0 0.0
2017-Nov-07 19:29N 70°38' E 029°44'0 0.0
2017-Nov-07 18:59N 70°38' E 029°44'0 0.0
2017-Nov-07 18:29N 70°38' E 029°44'0 0.0
2017-Nov-07 17:59N 70°38' E 029°44'0 0.0
2017-Nov-07 17:29N 70°38' E 029°44'0 0.0
2017-Nov-07 16:59N 70°38' E 029°44'0 0.0
2017-Nov-07 16:29N 70°38' E 029°44'0 0.0
2017-Nov-07 15:59N 70°38' E 029°44'0 0.0
2017-Nov-07 15:29N 70°38' E 029°44'0 0.0
2017-Nov-07 14:59N 70°38' E 029°44'0 0.0
2017-Nov-07 14:29N 70°38' E 029°44'0 0.0
2017-Nov-07 13:59N 70°38' E 029°44'0 0.0
2017-Nov-07 13:29N 70°38' E 029°44'0 0.0
2017-Nov-07 12:59N 70°38' E 029°44'0 0.0
2017-Nov-07 12:29N 70°38' E 029°44'0 0.0
2017-Nov-07 11:59N 70°38' E 029°44'0 0.0
2017-Nov-07 11:29N 70°38' E 029°44'0 0.0
2017-Nov-07 10:59N 70°38' E 029°44'0 0.0
2017-Nov-07 10:29N 70°38' E 029°44'0 0.0
2017-Nov-07 09:59N 70°38' E 029°44'0 0.0
2017-Nov-07 09:29N 70°38' E 029°44'0 0.0
2017-Nov-07 08:59N 70°38' E 029°44'0 0.0
2017-Nov-07 08:29N 70°38' E 029°44'0 0.0
2017-Nov-07 07:59N 70°38' E 029°44'0 0.0
2017-Nov-07 07:29N 70°38' E 029°44'0 0.0
2017-Nov-07 06:59N 70°38' E 029°44'0 0.0
2017-Nov-07 06:29N 70°38' E 029°44'0 0.0
2017-Nov-07 05:59N 70°38' E 029°44'0 0.0
2017-Nov-07 05:29N 70°38' E 029°44'0 0.0
2017-Nov-07 04:59N 70°38' E 029°44'0 0.0
2017-Nov-07 04:26N 70°38' E 029°44'0 0.0
2017-Nov-07 03:59N 70°38' E 029°44'0 0.0
2017-Nov-07 03:29N 70°38' E 029°44'0 0.0
2017-Nov-07 02:59N 70°38' E 029°44'0 0.0
2017-Nov-07 02:29N 70°38' E 029°44'0 0.0
2017-Nov-07 01:59N 70°38' E 029°44'0 0.0
2017-Nov-07 01:29N 70°38' E 029°44'0 0.0
2017-Nov-07 00:59N 70°38' E 029°44'0 0.0
2017-Nov-07 00:29N 70°38' E 029°44'0 0.0
2017-Nov-06 23:59N 70°38' E 029°44'0 0.0
2017-Nov-06 23:29N 70°38' E 029°44'0 0.0
2017-Nov-06 22:59N 70°38' E 029°44'0 0.0
2017-Nov-06 22:29N 70°38' E 029°44'0 0.0
2017-Nov-06 21:59N 70°38' E 029°44'0 0.0
2017-Nov-06 21:26N 70°38' E 029°44'0 0.0
2017-Nov-06 20:59N 70°38' E 029°44'0 0.0
2017-Nov-06 20:29N 70°38' E 029°44'  
Track history (hours):
 
Tides and Currents Weather Stations Pressure Air Temp Water Temp Dewpoint Dewpoint Depression Visibility Wind Speed Wind Dir Waves Ship Positions

Andungen F-62-bd

Last reported at 2017-Nov-16 09:06 UTC. Time now 2017-Dec-15 04:27 UTC.
Position N 70°38' E 029°44'.
Warning: this ship's position is 28 days out of date.

Length 10 m.

Type: Fishing. MMSI: 257136040.

Date/timePositionNaut miles runAvg speedWind from/ knotsBaromVisibWave heightAir tempDewpointWater temp
2017-Nov-16 09:06N 70°38' E 029°44'0 0.0
2017-Nov-16 09:00N 70°38' E 029°44'0 0.0
2017-Nov-16 08:30N 70°38' E 029°44'0 0.0
2017-Nov-16 08:00N 70°38' E 029°44'0 0.0
2017-Nov-16 07:30N 70°38' E 029°44'0 0.0
2017-Nov-16 07:00N 70°38' E 029°44'0 0.0
2017-Nov-16 06:30N 70°38' E 029°44'0 0.0
2017-Nov-16 06:00N 70°38' E 029°44'0 0.0
2017-Nov-16 05:30N 70°38' E 029°44'0 0.0
2017-Nov-16 05:00N 70°38' E 029°44'0 0.0
2017-Nov-16 04:30N 70°38' E 029°44'0 0.0
2017-Nov-16 04:00N 70°38' E 029°44'0 0.0
2017-Nov-16 03:30N 70°38' E 029°44'0 0.0
2017-Nov-16 03:00N 70°38' E 029°44'0 0.0
2017-Nov-16 02:30N 70°38' E 029°44'0 0.0
2017-Nov-16 02:00N 70°38' E 029°44'0 0.0
2017-Nov-16 01:30N 70°38' E 029°44'0 0.0
2017-Nov-16 01:00N 70°38' E 029°44'0 0.0
2017-Nov-16 00:30N 70°38' E 029°44'0 0.0
2017-Nov-16 00:00N 70°38' E 029°44'0 0.0
2017-Nov-15 23:30N 70°38' E 029°44'0 0.0
2017-Nov-15 23:00N 70°38' E 029°44'0 0.0
2017-Nov-15 22:30N 70°38' E 029°44'0 0.0
2017-Nov-15 22:00N 70°38' E 029°44'0 0.0
2017-Nov-15 21:30N 70°38' E 029°44'0 0.0
2017-Nov-15 21:00N 70°38' E 029°44'0 0.0
2017-Nov-15 20:30N 70°38' E 029°44'0 0.0
2017-Nov-15 20:00N 70°38' E 029°44'0 0.0
2017-Nov-15 19:30N 70°38' E 029°44'0 0.0
2017-Nov-15 19:00N 70°38' E 029°44'0 0.0
2017-Nov-15 18:30N 70°38' E 029°44'0 0.0
2017-Nov-15 18:00N 70°38' E 029°44'0 0.4
2017-Nov-15 17:29N 70°38' E 029°44'0 0.8
2017-Nov-15 16:55N 70°38' E 029°43'0 0.0
2017-Nov-15 16:25N 70°38' E 029°43'2 4.5
2017-Nov-15 16:00N 70°39' E 029°47'3 6.2
2017-Nov-15 15:30N 70°42' E 029°50'3 6.2
2017-Nov-15 15:00N 70°45' E 029°52'2 4.2
2017-Nov-15 14:30N 70°47' E 029°52'0 0.5
2017-Nov-15 13:59N 70°47' E 029°53'0 0.8
2017-Nov-15 13:30N 70°47' E 029°54'0 0.9
2017-Nov-15 13:00N 70°47' E 029°55'0 0.9
2017-Nov-15 12:30N 70°46' E 029°56'0 0.8
2017-Nov-15 11:59N 70°46' E 029°57'2 3.3
2017-Nov-15 11:30N 70°47' E 029°53'1 2.7
2017-Nov-15 11:00N 70°49' E 029°53'0 0.2
2017-Nov-15 10:30N 70°49' E 029°53'0 0.5
2017-Nov-15 10:00N 70°48' E 029°52'0 0.8
2017-Nov-15 09:30N 70°48' E 029°52'0 0.9
2017-Nov-15 09:00N 70°48' E 029°50'0 0.5
2017-Nov-15 08:30N 70°48' E 029°50'0 0.8
2017-Nov-15 08:00N 70°48' E 029°51'0 0.2
2017-Nov-15 07:29N 70°48' E 029°51'1 1.4
2017-Nov-15 06:59N 70°47' E 029°50'1 3.1
2017-Nov-15 06:30N 70°47' E 029°54'2 3.8
2017-Nov-15 05:59N 70°45' E 029°55'3 5.6
2017-Nov-15 05:30N 70°42' E 029°50'3 6.2
2017-Nov-15 05:00N 70°39' E 029°48'2 3.5
2017-Nov-15 04:29N 70°38' E 029°44'0 0.3
2017-Nov-15 03:59N 70°38' E 029°44'0 0.0
2017-Nov-15 03:29N 70°38' E 029°44'0 0.0
2017-Nov-15 02:59N 70°38' E 029°44'0 0.0
2017-Nov-15 02:29N 70°38' E 029°44'0 0.0
2017-Nov-15 01:59N 70°38' E 029°44'0 0.0
2017-Nov-15 01:29N 70°38' E 029°44'0 0.0
2017-Nov-15 00:59N 70°38' E 029°44'0 0.0
2017-Nov-15 00:29N 70°38' E 029°44'0 0.0
2017-Nov-14 23:59N 70°38' E 029°44'0 0.0
2017-Nov-14 23:29N 70°38' E 029°44'0 0.0
2017-Nov-14 22:59N 70°38' E 029°44'0 0.0
2017-Nov-14 22:29N 70°38' E 029°44'0 0.0
2017-Nov-14 21:59N 70°38' E 029°44'0 0.0
2017-Nov-14 21:29N 70°38' E 029°44'0 0.0
2017-Nov-14 20:59N 70°38' E 029°44'0 0.0
2017-Nov-14 20:29N 70°38' E 029°44'0 0.0
2017-Nov-14 19:59N 70°38' E 029°44'0 0.0
2017-Nov-14 19:29N 70°38' E 029°44'0 0.0
2017-Nov-14 18:56N 70°38' E 029°44'0 0.0
2017-Nov-14 18:29N 70°38' E 029°44'0 0.0
2017-Nov-14 17:59N 70°38' E 029°44'0 0.0
2017-Nov-14 17:29N 70°38' E 029°44'0 0.0
2017-Nov-14 16:59N 70°38' E 029°44'0 0.0
2017-Nov-14 16:29N 70°38' E 029°44'0 0.0
2017-Nov-14 15:59N 70°38' E 029°44'0 0.0
2017-Nov-14 15:29N 70°38' E 029°44'0 0.0
2017-Nov-14 14:59N 70°38' E 029°44'0 0.0
2017-Nov-14 14:29N 70°38' E 029°44'0 0.0
2017-Nov-14 13:59N 70°38' E 029°44'0 0.0
2017-Nov-14 13:29N 70°38' E 029°44'0 0.0
2017-Nov-14 12:59N 70°38' E 029°44'0 0.0
2017-Nov-14 12:29N 70°38' E 029°44'0 0.0
2017-Nov-14 11:59N 70°38' E 029°44'0 0.0
2017-Nov-14 11:29N 70°38' E 029°44'0 0.0
2017-Nov-14 10:59N 70°38' E 029°44'0 0.0
2017-Nov-14 10:29N 70°38' E 029°44'0 0.0
2017-Nov-14 09:59N 70°38' E 029°44'0 0.0
2017-Nov-14 09:29N 70°38' E 029°44'0 0.0
2017-Nov-14 08:59N 70°38' E 029°44'0 0.0
2017-Nov-14 08:26N 70°38' E 029°44'0 0.0
2017-Nov-14 07:59N 70°38' E 029°44'0 0.0
2017-Nov-14 07:29N 70°38' E 029°44'0 0.0
2017-Nov-14 06:59N 70°38' E 029°44'0 0.0
2017-Nov-14 06:29N 70°38' E 029°44'0 0.0
2017-Nov-14 05:59N 70°38' E 029°44'0 0.0
2017-Nov-14 05:26N 70°38' E 029°44'0 0.0
2017-Nov-14 04:59N 70°38' E 029°44'0 0.0
2017-Nov-14 04:29N 70°38' E 029°44'0 0.0
2017-Nov-14 03:59N 70°38' E 029°44'0 0.0
2017-Nov-14 03:29N 70°38' E 029°44'0 0.0
2017-Nov-14 02:59N 70°38' E 029°44'0 0.0
2017-Nov-14 02:29N 70°38' E 029°44'0 0.0
2017-Nov-14 01:59N 70°38' E 029°44'0 0.0
2017-Nov-14 01:29N 70°38' E 029°44'0 0.0
2017-Nov-14 00:59N 70°38' E 029°44'0 0.0
2017-Nov-14 00:29N 70°38' E 029°44'0 0.0
2017-Nov-13 23:59N 70°38' E 029°44'0 0.0
2017-Nov-13 23:29N 70°38' E 029°44'0 0.0
2017-Nov-13 22:59N 70°38' E 029°44'0 0.0
2017-Nov-13 22:29N 70°38' E 029°44'0 0.0
2017-Nov-13 21:59N 70°38' E 029°44'0 0.0
2017-Nov-13 01:59N 70°38' E 029°44'0 0.0
2017-Nov-13 01:29N 70°38' E 029°44'0 0.0
2017-Nov-13 00:59N 70°38' E 029°44'0 0.0
2017-Nov-13 00:29N 70°38' E 029°44'0 0.0
2017-Nov-12 23:59N 70°38' E 029°44'0 0.0
2017-Nov-12 23:29N 70°38' E 029°44'0 0.0
2017-Nov-12 22:59N 70°38' E 029°44'0 0.0
2017-Nov-12 22:29N 70°38' E 029°44'0 0.0
2017-Nov-12 21:59N 70°38' E 029°44'0 0.0
2017-Nov-12 21:29N 70°38' E 029°44'0 0.0
2017-Nov-12 20:59N 70°38' E 029°44'0 0.0
2017-Nov-12 20:29N 70°38' E 029°44'0 0.0
2017-Nov-12 19:59N 70°38' E 029°44'0 0.0
2017-Nov-12 19:29N 70°38' E 029°44'0 0.0
2017-Nov-12 18:59N 70°38' E 029°44'0 0.0
2017-Nov-12 18:29N 70°38' E 029°44'0 0.0
2017-Nov-12 17:59N 70°38' E 029°44'0 0.0
2017-Nov-12 17:29N 70°38' E 029°44'0 0.0
2017-Nov-12 16:59N 70°38' E 029°44'0 0.0
2017-Nov-12 16:29N 70°38' E 029°44'0 0.0
2017-Nov-12 15:59N 70°38' E 029°44'0 0.0
2017-Nov-12 15:29N 70°38' E 029°44'0 0.3
2017-Nov-12 15:00N 70°38' E 029°44'2 3.1
2017-Nov-12 14:30N 70°39' E 029°48'3 6.1
2017-Nov-12 14:00N 70°42' E 029°50'3 6.2
2017-Nov-12 13:30N 70°45' E 029°51'3 5.8
2017-Nov-12 13:00N 70°48' E 029°53'1 1.7
2017-Nov-12 12:30N 70°49' E 029°54'0 0.3
2017-Nov-12 12:00N 70°49' E 029°54'0 0.6
2017-Nov-12 11:28N 70°48' E 029°54'0 0.8
2017-Nov-12 11:00N 70°48' E 029°53'0 0.4
2017-Nov-12 10:30N 70°48' E 029°53'0 0.7
2017-Nov-12 10:00N 70°48' E 029°53'1 1.8
2017-Nov-12 09:30N 70°49' E 029°54'0 0.9
2017-Nov-12 08:59N 70°48' E 029°53'0 0.4
2017-Nov-12 08:30N 70°49' E 029°54'0 0.5
2017-Nov-12 08:00N 70°49' E 029°54'0 0.7
2017-Nov-12 07:29N 70°49' E 029°53'1 1.1
2017-Nov-12 07:00N 70°48' E 029°53'0 0.2
2017-Nov-12 06:30N 70°48' E 029°53'2 5.0
2017-Nov-12 06:00N 70°46' E 029°51'3 6.6
2017-Nov-12 05:30N 70°42' E 029°50'3 6.6
2017-Nov-12 04:59N 70°39' E 029°47'1 3.1
2017-Nov-12 04:30N 70°38' E 029°44'0 0.3
2017-Nov-12 04:00N 70°38' E 029°44'0 0.0
2017-Nov-12 03:30N 70°38' E 029°44'0 0.0
2017-Nov-12 03:00N 70°38' E 029°44'0 0.0
2017-Nov-12 02:30N 70°38' E 029°44'0 0.0
2017-Nov-12 01:57N 70°38' E 029°44'0 0.0
2017-Nov-12 01:30N 70°38' E 029°44'0 0.0
2017-Nov-12 01:00N 70°38' E 029°44'0 0.0
2017-Nov-12 00:30N 70°38' E 029°44'0 0.0
2017-Nov-12 00:00N 70°38' E 029°44'0 0.0
2017-Nov-11 23:30N 70°38' E 029°44'0 0.0
2017-Nov-11 23:00N 70°38' E 029°44'0 0.0
2017-Nov-11 22:30N 70°38' E 029°44'0 0.0
2017-Nov-11 22:00N 70°38' E 029°44'0 0.0
2017-Nov-11 21:30N 70°38' E 029°44'0 0.0
2017-Nov-11 21:00N 70°38' E 029°44'0 0.0
2017-Nov-11 20:30N 70°38' E 029°44'0 0.0
2017-Nov-11 20:00N 70°38' E 029°44'0 0.0
2017-Nov-11 19:30N 70°38' E 029°44'0 0.0
2017-Nov-11 19:00N 70°38' E 029°44'0 0.0
2017-Nov-11 18:30N 70°38' E 029°44'0 0.0
2017-Nov-11 18:00N 70°38' E 029°44'0 0.0
2017-Nov-11 17:30N 70°38' E 029°44'0 0.0
2017-Nov-11 17:00N 70°38' E 029°44'0 0.0
2017-Nov-11 16:30N 70°38' E 029°44'0 0.0
2017-Nov-11 16:00N 70°38' E 029°44'0 0.0
2017-Nov-11 15:30N 70°38' E 029°44'0 0.0
2017-Nov-11 15:00N 70°38' E 029°44'0 0.0
2017-Nov-11 14:30N 70°38' E 029°44'0 0.0
2017-Nov-11 13:57N 70°38' E 029°44'0 0.0
2017-Nov-11 13:30N 70°38' E 029°44'0 0.0
2017-Nov-11 13:00N 70°38' E 029°44'0 0.0
2017-Nov-11 12:30N 70°38' E 029°44'0 0.0
2017-Nov-11 12:00N 70°38' E 029°44'0 0.0
2017-Nov-11 11:30N 70°38' E 029°44'0 0.0
2017-Nov-11 11:00N 70°38' E 029°44'0 0.0
2017-Nov-11 10:27N 70°38' E 029°44'0 0.0
2017-Nov-11 10:00N 70°38' E 029°44'0 0.0
2017-Nov-11 09:30N 70°38' E 029°44'0 0.0
2017-Nov-11 09:00N 70°38' E 029°44'0 0.0
2017-Nov-11 08:30N 70°38' E 029°44'0 0.0
2017-Nov-11 08:00N 70°38' E 029°44'0 0.0
2017-Nov-11 07:30N 70°38' E 029°44'0 0.0
2017-Nov-11 07:00N 70°38' E 029°44'0 0.0
2017-Nov-11 06:30N 70°38' E 029°44'0 0.0
2017-Nov-11 06:00N 70°38' E 029°44'0 0.0
2017-Nov-11 05:30N 70°38' E 029°44'0 0.0
2017-Nov-11 05:00N 70°38' E 029°44'0 0.0
2017-Nov-11 04:30N 70°38' E 029°44'0 0.0
2017-Nov-11 04:00N 70°38' E 029°44'0 0.0
2017-Nov-11 03:30N 70°38' E 029°44'0 0.0
2017-Nov-11 02:57N 70°38' E 029°44'0 0.0
2017-Nov-11 02:30N 70°38' E 029°44'0 0.0
2017-Nov-11 01:57N 70°38' E 029°44'0 0.0
2017-Nov-11 01:30N 70°38' E 029°44'0 0.0
2017-Nov-11 01:00N 70°38' E 029°44'0 0.0
2017-Nov-11 00:30N 70°38' E 029°44'0 0.0
2017-Nov-11 00:00N 70°38' E 029°44'0 0.0
2017-Nov-10 23:30N 70°38' E 029°44'0 0.0
2017-Nov-10 23:00N 70°38' E 029°44'0 0.0
2017-Nov-10 22:30N 70°38' E 029°44'0 0.0
2017-Nov-10 22:00N 70°38' E 029°44'0 0.0
2017-Nov-10 21:30N 70°38' E 029°44'0 0.0
2017-Nov-10 21:00N 70°38' E 029°44'0 0.0
2017-Nov-10 20:30N 70°38' E 029°44'0 0.0
2017-Nov-10 20:00N 70°38' E 029°44'0 0.0
2017-Nov-10 19:30N 70°38' E 029°44'0 0.0
2017-Nov-10 19:00N 70°38' E 029°44'0 0.0
2017-Nov-10 18:30N 70°38' E 029°44'0 0.0
2017-Nov-10 18:00N 70°38' E 029°44'0 0.0
2017-Nov-10 17:30N 70°38' E 029°44'0 0.0
2017-Nov-10 17:00N 70°38' E 029°44'0 0.0
2017-Nov-10 16:30N 70°38' E 029°44'0 0.0
2017-Nov-10 16:00N 70°38' E 029°44'0 0.0
2017-Nov-10 15:30N 70°38' E 029°44'0 0.0
2017-Nov-10 15:00N 70°38' E 029°44'0 0.0
2017-Nov-10 14:30N 70°38' E 029°44'0 0.0
2017-Nov-10 14:00N 70°38' E 029°44'0 0.0
2017-Nov-10 13:30N 70°38' E 029°44'0 0.0
2017-Nov-10 13:00N 70°38' E 029°44'0 0.0
2017-Nov-10 12:30N 70°38' E 029°44'0 0.0
2017-Nov-10 12:00N 70°38' E 029°44'0 0.0
2017-Nov-10 11:27N 70°38' E 029°44'0 0.0
2017-Nov-10 11:00N 70°38' E 029°44'0 0.0
2017-Nov-10 10:30N 70°38' E 029°44'0 0.0
2017-Nov-10 10:00N 70°38' E 029°44'0 0.0
2017-Nov-10 09:30N 70°38' E 029°44'0 0.0
2017-Nov-10 09:00N 70°38' E 029°44'0 0.0
2017-Nov-10 08:30N 70°38' E 029°44'0 0.0
2017-Nov-10 08:00N 70°38' E 029°44'0 0.0
2017-Nov-10 07:30N 70°38' E 029°44'0 0.0
2017-Nov-10 07:00N 70°38' E 029°44'0 0.0
2017-Nov-10 06:30N 70°38' E 029°44'0 0.0
2017-Nov-10 05:57N 70°38' E 029°44'0 0.0
2017-Nov-10 05:30N 70°38' E 029°44'0 0.0
2017-Nov-10 05:00N 70°38' E 029°44'0 0.0
2017-Nov-10 04:30N 70°38' E 029°44'0 0.0
2017-Nov-10 04:00N 70°38' E 029°44'0 0.0
2017-Nov-10 03:30N 70°38' E 029°44'0 0.0
2017-Nov-10 03:00N 70°38' E 029°44'0 0.0
2017-Nov-10 02:30N 70°38' E 029°44'0 0.0
2017-Nov-10 02:00N 70°38' E 029°44'0 0.0
2017-Nov-10 01:30N 70°38' E 029°44'0 0.0
2017-Nov-10 01:00N 70°38' E 029°44'0 0.0
2017-Nov-10 00:30N 70°38' E 029°44'0 0.0
2017-Nov-10 00:00N 70°38' E 029°44'0 0.0
2017-Nov-09 23:30N 70°38' E 029°44'0 0.0
2017-Nov-09 23:00N 70°38' E 029°44'0 0.0
2017-Nov-09 22:30N 70°38' E 029°44'0 0.0
2017-Nov-09 22:00N 70°38' E 029°44'0 0.0
2017-Nov-09 21:30N 70°38' E 029°44'0 0.0
2017-Nov-09 21:00N 70°38' E 029°44'0 0.0
2017-Nov-09 20:30N 70°38' E 029°44'0 0.0
2017-Nov-09 20:00N 70°38' E 029°44'0 0.0
2017-Nov-09 19:30N 70°38' E 029°44'0 0.0
2017-Nov-09 19:00N 70°38' E 029°44'0 0.0
2017-Nov-09 18:30N 70°38' E 029°44'0 0.0
2017-Nov-09 18:00N 70°38' E 029°44'0 0.0
2017-Nov-09 17:30N 70°38' E 029°44'0 0.0
2017-Nov-09 17:00N 70°38' E 029°44'0 0.0
2017-Nov-09 16:30N 70°38' E 029°44'0 0.0
2017-Nov-09 16:00N 70°38' E 029°44'0 0.0
2017-Nov-09 15:30N 70°38' E 029°44'0 0.0
2017-Nov-09 14:59N 70°38' E 029°44'0 0.6
2017-Nov-09 14:29N 70°38' E 029°44'0 0.5
2017-Nov-09 13:59N 70°38' E 029°43'1 2.2
2017-Nov-09 13:30N 70°38' E 029°46'3 6.1
2017-Nov-09 13:00N 70°41' E 029°49'3 5.9
2017-Nov-09 12:30N 70°44' E 029°52'3 5.5
2017-Nov-09 12:00N 70°47' E 029°55'2 4.4
2017-Nov-09 11:30N 70°49' E 029°57'1 1.6
2017-Nov-09 11:00N 70°48' E 029°58'0 0.6
2017-Nov-09 10:29N 70°48' E 029°57'0 0.6
2017-Nov-09 09:59N 70°48' E 029°57'1 1.4
2017-Nov-09 09:30N 70°48' E 029°58'0 0.5
2017-Nov-09 08:58N 70°48' E 029°58'1 1.1
2017-Nov-09 08:30N 70°48' E 029°57'0 0.7
2017-Nov-09 08:00N 70°48' E 029°56'1 1.5
2017-Nov-09 07:29N 70°48' E 029°55'0 0.5
2017-Nov-09 07:00N 70°47' E 029°55'2 4.0
2017-Nov-09 06:30N 70°45' E 029°54'3 6.4
2017-Nov-09 06:00N 70°42' E 029°51'3 6.5
2017-Nov-09 05:30N 70°39' E 029°48'2 3.3
2017-Nov-09 04:59N 70°38' E 029°44'0 0.3
2017-Nov-09 04:29N 70°38' E 029°44'0 0.0
2017-Nov-09 03:59N 70°38' E 029°44'0 0.0
2017-Nov-09 03:29N 70°38' E 029°44'0 0.0
2017-Nov-09 02:59N 70°38' E 029°44'0 0.0
2017-Nov-09 02:29N 70°38' E 029°44'0 0.0
2017-Nov-09 01:59N 70°38' E 029°44'0 0.0
2017-Nov-09 01:29N 70°38' E 029°44'0 0.0
2017-Nov-09 00:59N 70°38' E 029°44'0 0.0
2017-Nov-09 00:29N 70°38' E 029°44'0 0.0
2017-Nov-08 23:59N 70°38' E 029°44'0 0.0
2017-Nov-08 23:29N 70°38' E 029°44'0 0.0
2017-Nov-08 22:59N 70°38' E 029°44'0 0.0
2017-Nov-08 22:29N 70°38' E 029°44'0 0.0
2017-Nov-08 21:59N 70°38' E 029°44'0 0.0
2017-Nov-08 21:29N 70°38' E 029°44'0 0.0
2017-Nov-08 20:59N 70°38' E 029°44'0 0.0
2017-Nov-08 20:29N 70°38' E 029°44'0 0.0
2017-Nov-08 19:59N 70°38' E 029°44'0 0.0
2017-Nov-08 19:29N 70°38' E 029°44'0 0.0
2017-Nov-08 18:59N 70°38' E 029°44'0 0.0
2017-Nov-08 18:29N 70°38' E 029°44'0 0.0
2017-Nov-08 17:59N 70°38' E 029°44'0 0.0
2017-Nov-08 17:26N 70°38' E 029°44'0 0.0
2017-Nov-08 16:59N 70°38' E 029°44'0 0.0
2017-Nov-08 16:29N 70°38' E 029°44'0 0.0
2017-Nov-08 15:59N 70°38' E 029°44'0 0.0
2017-Nov-08 15:29N 70°38' E 029°44'0 0.0
2017-Nov-08 14:59N 70°38' E 029°44'0 0.0
2017-Nov-08 14:29N 70°38' E 029°44'0 0.0
2017-Nov-08 13:59N 70°38' E 029°44'0 0.0
2017-Nov-08 13:29N 70°38' E 029°44'0 0.0
2017-Nov-08 12:59N 70°38' E 029°44'0 0.0
2017-Nov-08 12:29N 70°38' E 029°44'0 0.0
2017-Nov-08 11:59N 70°38' E 029°44'0 0.0
2017-Nov-08 11:29N 70°38' E 029°44'0 0.0
2017-Nov-08 10:59N 70°38' E 029°44'0 0.0
2017-Nov-08 10:29N 70°38' E 029°44'0 0.0
2017-Nov-08 09:59N 70°38' E 029°44'0 0.0
2017-Nov-08 09:29N 70°38' E 029°44'0 0.0
2017-Nov-08 08:59N 70°38' E 029°44'0 0.0
2017-Nov-08 08:29N 70°38' E 029°44'0 0.0
2017-Nov-08 07:59N 70°38' E 029°44'0 0.0
2017-Nov-08 07:29N 70°38' E 029°44'0 0.0
2017-Nov-08 06:59N 70°38' E 029°44'0 0.0
2017-Nov-08 06:29N 70°38' E 029°44'0 0.0
2017-Nov-08 05:59N 70°38' E 029°44'0 0.0
2017-Nov-08 05:29N 70°38' E 029°44'0 0.0
2017-Nov-08 04:59N 70°38' E 029°44'0 0.0
2017-Nov-08 04:29N 70°38' E 029°44'0 0.0
2017-Nov-08 03:59N 70°38' E 029°44'0 0.0
2017-Nov-08 03:29N 70°38' E 029°44'0 0.0
2017-Nov-08 02:59N 70°38' E 029°44'0 0.0
2017-Nov-08 02:29N 70°38' E 029°44'0 0.0
2017-Nov-08 01:59N 70°38' E 029°44'0 0.0
2017-Nov-08 01:29N 70°38' E 029°44'0 0.0
2017-Nov-08 00:59N 70°38' E 029°44'0 0.0
2017-Nov-08 00:29N 70°38' E 029°44'0 0.0
2017-Nov-07 23:59N 70°38' E 029°44'0 0.0
2017-Nov-07 23:29N 70°38' E 029°44'0 0.0
2017-Nov-07 22:59N 70°38' E 029°44'0 0.0
2017-Nov-07 22:29N 70°38' E 029°44'0 0.0
2017-Nov-07 21:59N 70°38' E 029°44'0 0.0
2017-Nov-07 21:29N 70°38' E 029°44'0 0.0
2017-Nov-07 20:59N 70°38' E 029°44'0 0.0
2017-Nov-07 20:29N 70°38' E 029°44'0 0.0
2017-Nov-07 19:59N 70°38' E 029°44'0 0.0
2017-Nov-07 19:29N 70°38' E 029°44'0 0.0
2017-Nov-07 18:59N 70°38' E 029°44'0 0.0
2017-Nov-07 18:29N 70°38' E 029°44'0 0.0
2017-Nov-07 17:59N 70°38' E 029°44'0 0.0
2017-Nov-07 17:29N 70°38' E 029°44'0 0.0
2017-Nov-07 16:59N 70°38' E 029°44'0 0.0
2017-Nov-07 16:29N 70°38' E 029°44'0 0.0
2017-Nov-07 15:59N 70°38' E 029°44'0 0.0
2017-Nov-07 15:29N 70°38' E 029°44'0 0.0
2017-Nov-07 14:59N 70°38' E 029°44'0 0.0
2017-Nov-07 14:29N 70°38' E 029°44'0 0.0
2017-Nov-07 13:59N 70°38' E 029°44'0 0.0
2017-Nov-07 13:29N 70°38' E 029°44'0 0.0
2017-Nov-07 12:59N 70°38' E 029°44'0 0.0
2017-Nov-07 12:29N 70°38' E 029°44'0 0.0
2017-Nov-07 11:59N 70°38' E 029°44'0 0.0
2017-Nov-07 11:29N 70°38' E 029°44'0 0.0
2017-Nov-07 10:59N 70°38' E 029°44'0 0.0
2017-Nov-07 10:29N 70°38' E 029°44'0 0.0
2017-Nov-07 09:59N 70°38' E 029°44'0 0.0
2017-Nov-07 09:29N 70°38' E 029°44'0 0.0
2017-Nov-07 08:59N 70°38' E 029°44'0 0.0
2017-Nov-07 08:29N 70°38' E 029°44'0 0.0
2017-Nov-07 07:59N 70°38' E 029°44'0 0.0
2017-Nov-07 07:29N 70°38' E 029°44'0 0.0
2017-Nov-07 06:59N 70°38' E 029°44'0 0.0
2017-Nov-07 06:29N 70°38' E 029°44'0 0.0
2017-Nov-07 05:59N 70°38' E 029°44'0 0.0
2017-Nov-07 05:29N 70°38' E 029°44'0 0.0
2017-Nov-07 04:59N 70°38' E 029°44'0 0.0
2017-Nov-07 04:26N 70°38' E 029°44'0 0.0
2017-Nov-07 03:59N 70°38' E 029°44'0 0.0
2017-Nov-07 03:29N 70°38' E 029°44'0 0.0
2017-Nov-07 02:59N 70°38' E 029°44'0 0.0
2017-Nov-07 02:29N 70°38' E 029°44'0 0.0
2017-Nov-07 01:59N 70°38' E 029°44'0 0.0
2017-Nov-07 01:29N 70°38' E 029°44'0 0.0
2017-Nov-07 00:59N 70°38' E 029°44'0 0.0
2017-Nov-07 00:29N 70°38' E 029°44'0 0.0
2017-Nov-06 23:59N 70°38' E 029°44'0 0.0
2017-Nov-06 23:29N 70°38' E 029°44'0 0.0
2017-Nov-06 22:59N 70°38' E 029°44'0 0.0
2017-Nov-06 22:29N 70°38' E 029°44'0 0.0
2017-Nov-06 21:59N 70°38' E 029°44'0 0.0
2017-Nov-06 21:26N 70°38' E 029°44'0 0.0
2017-Nov-06 20:59N 70°38' E 029°44'0 0.0
2017-Nov-06 20:29N 70°38' E 029°44'  

Dump ship's entire track history